createdAt,value
2018-07-24T00:00:43.265Z,0.00
2018-07-24T00:01:43.981Z,0.00
2018-07-24T00:02:43.253Z,0.00
2018-07-24T00:03:43.184Z,0.00
2018-07-24T00:04:44.005Z,0.00
2018-07-24T00:05:43.170Z,0.00
2018-07-24T00:06:43.982Z,0.00
2018-07-24T00:07:43.130Z,0.00
2018-07-24T00:08:43.066Z,0.00
2018-07-24T00:09:43.985Z,0.00
2018-07-24T00:10:43.009Z,0.00
2018-07-24T00:11:42.983Z,0.00
2018-07-24T00:12:43.006Z,0.00
2018-07-24T00:13:42.945Z,0.00
2018-07-24T00:14:42.930Z,0.00
2018-07-24T00:15:43.492Z,0.00
2018-07-24T00:16:42.863Z,0.00
2018-07-24T00:17:42.894Z,0.00
2018-07-24T00:18:43.483Z,0.00
2018-07-24T00:19:42.789Z,0.00
2018-07-24T00:20:42.771Z,0.00
2018-07-24T00:21:43.482Z,0.00
2018-07-24T00:22:42.764Z,0.00
2018-07-24T00:23:42.690Z,0.00
2018-07-24T00:24:43.488Z,0.00
2018-07-24T00:25:42.639Z,0.00
2018-07-24T00:26:43.486Z,0.00
2018-07-24T00:27:42.661Z,0.00
2018-07-24T00:28:43.052Z,0.00
2018-07-24T00:29:42.544Z,0.00
2018-07-24T00:30:43.489Z,0.00
2018-07-24T00:31:42.513Z,0.00
2018-07-24T00:32:42.472Z,0.00
2018-07-24T00:33:42.538Z,0.00
2018-07-24T00:34:42.427Z,0.00
2018-07-24T00:35:42.397Z,0.00
2018-07-24T00:36:42.995Z,0.00
2018-07-24T00:37:42.349Z,0.00
2018-07-24T00:38:42.555Z,0.00
2018-07-24T00:39:42.299Z,0.00
2018-07-24T00:40:42.271Z,0.00
2018-07-24T00:41:42.252Z,0.00
2018-07-24T00:42:42.993Z,0.00
2018-07-24T00:43:42.241Z,0.00
2018-07-24T00:44:42.219Z,0.00
2018-07-24T00:45:42.992Z,0.00
2018-07-24T00:46:42.123Z,0.00
2018-07-24T00:47:42.173Z,0.00
2018-07-24T00:48:42.076Z,0.00
2018-07-24T00:49:42.091Z,0.00
2018-07-24T00:50:42.029Z,0.00
2018-07-24T00:51:42.999Z,0.00
2018-07-24T00:52:41.982Z,0.00
2018-07-24T00:53:41.950Z,0.00
2018-07-24T00:54:42.050Z,0.00
2018-07-24T00:55:41.904Z,0.00
2018-07-24T00:56:42.500Z,0.00
2018-07-24T00:57:41.854Z,0.00
2018-07-24T00:58:42.493Z,0.00
2018-07-24T00:59:41.848Z,0.00
2018-07-24T01:00:41.786Z,0.00
2018-07-24T01:01:42.510Z,0.00
2018-07-24T01:02:41.729Z,0.00
2018-07-24T01:03:41.712Z,0.00
2018-07-24T01:04:42.069Z,0.00
2018-07-24T01:05:41.660Z,0.00
2018-07-24T01:06:42.077Z,0.00
2018-07-24T01:07:41.607Z,0.00
2018-07-24T01:08:42.507Z,0.00
2018-07-24T01:09:41.608Z,0.00
2018-07-24T01:10:41.538Z,0.00
2018-07-24T01:11:42.496Z,0.00
2018-07-24T01:12:41.482Z,0.00
2018-07-24T01:13:41.995Z,0.00
2018-07-24T01:14:41.482Z,0.00
2018-07-24T01:15:41.409Z,0.00
2018-07-24T01:16:41.391Z,0.00
2018-07-24T01:17:41.998Z,0.00
2018-07-24T01:18:41.345Z,0.00
2018-07-24T01:19:41.362Z,0.00
2018-07-24T01:20:41.283Z,0.00
2018-07-24T01:21:41.996Z,0.00
2018-07-24T01:22:41.238Z,0.00
2018-07-24T01:23:41.998Z,0.00
2018-07-24T01:24:41.243Z,0.00
2018-07-24T01:25:42.007Z,0.00
2018-07-24T01:26:41.135Z,0.00
2018-07-24T01:27:41.111Z,0.00
2018-07-24T01:28:41.998Z,0.00
2018-07-24T01:29:41.119Z,0.00
2018-07-24T01:30:42.000Z,0.00
2018-07-24T01:31:41.010Z,0.00
2018-07-24T01:32:41.504Z,0.00
2018-07-24T01:33:40.961Z,0.00
2018-07-24T01:34:40.982Z,0.00
2018-07-24T01:35:41.051Z,0.00
2018-07-24T01:36:40.887Z,0.00
2018-07-24T01:37:41.409Z,0.00
2018-07-24T01:38:41.503Z,0.00
2018-07-24T01:39:40.815Z,0.00
2018-07-24T01:40:40.787Z,0.00
2018-07-24T01:41:41.049Z,0.00
2018-07-24T01:42:40.793Z,0.00
2018-07-24T01:43:40.718Z,0.00
2018-07-24T01:44:40.687Z,0.00
2018-07-24T01:45:40.667Z,0.00
2018-07-24T01:46:40.641Z,0.00
2018-07-24T01:47:40.658Z,0.00
2018-07-24T01:48:40.585Z,0.00
2018-07-24T01:49:40.560Z,0.00
2018-07-24T01:50:40.546Z,0.00
2018-07-24T01:51:40.561Z,0.00
2018-07-24T01:52:40.537Z,0.00
2018-07-24T01:53:41.006Z,0.00
2018-07-24T01:54:40.441Z,0.00
2018-07-24T01:55:43.005Z,0.00
2018-07-24T01:56:40.424Z,0.00
2018-07-24T01:57:40.367Z,0.00
2018-07-24T01:58:40.561Z,0.00
2018-07-24T01:59:40.313Z,0.00
2018-07-24T02:00:41.968Z,0.00
2018-07-24T02:01:40.265Z,0.00
2018-07-24T02:02:40.243Z,0.00
2018-07-24T02:03:40.559Z,0.00
2018-07-24T02:04:40.234Z,0.00
2018-07-24T02:05:40.162Z,0.00
2018-07-24T02:06:41.013Z,0.00
2018-07-24T02:07:40.112Z,0.00
2018-07-24T02:08:40.090Z,0.00
2018-07-24T02:09:40.101Z,0.00
2018-07-24T02:10:40.035Z,0.00
2018-07-24T02:11:40.512Z,0.00
2018-07-24T02:12:39.991Z,0.00
2018-07-24T02:13:40.510Z,0.00
2018-07-24T02:14:39.987Z,0.00
2018-07-24T02:15:40.513Z,0.00
2018-07-24T02:16:39.889Z,0.00
2018-07-24T02:17:39.862Z,0.00
2018-07-24T02:18:40.076Z,0.00
2018-07-24T02:19:39.809Z,0.00
2018-07-24T02:20:39.832Z,0.00
2018-07-24T02:21:40.513Z,0.00
2018-07-24T02:22:39.734Z,0.00
2018-07-24T02:23:39.709Z,0.00
2018-07-24T02:24:39.689Z,0.00
2018-07-24T02:25:39.711Z,0.00
2018-07-24T02:26:39.637Z,0.00
2018-07-24T02:27:39.612Z,0.00
2018-07-24T02:28:40.517Z,4.00
2018-07-24T02:29:39.603Z,4.00
2018-07-24T02:30:40.518Z,4.00
2018-07-24T02:31:39.511Z,0.00
2018-07-24T02:32:39.483Z,0.00
2018-07-24T02:33:39.507Z,4.00
2018-07-24T02:34:39.475Z,4.00
2018-07-24T02:35:39.577Z,4.00
2018-07-24T02:36:39.383Z,4.00
2018-07-24T02:37:39.573Z,4.00
2018-07-24T02:38:39.337Z,8.00
2018-07-24T02:39:39.307Z,8.00
2018-07-24T02:40:40.019Z,8.00
2018-07-24T02:41:39.327Z,8.00
2018-07-24T02:42:39.230Z,12.00
2018-07-24T02:43:39.221Z,12.00
2018-07-24T02:44:40.017Z,16.00
2018-07-24T02:45:39.230Z,16.00
2018-07-24T02:46:40.017Z,16.00
2018-07-24T02:47:39.153Z,20.00
2018-07-24T02:48:39.078Z,24.00
2018-07-24T02:49:40.029Z,24.00
2018-07-24T02:50:39.029Z,28.00
2018-07-24T02:51:39.077Z,32.00
2018-07-24T02:52:38.984Z,40.00
2018-07-24T02:53:39.524Z,44.00
2018-07-24T02:54:38.932Z,48.00
2018-07-24T02:55:38.908Z,56.00
2018-07-24T02:56:39.067Z,60.00
2018-07-24T02:57:38.858Z,68.00
2018-07-24T02:58:39.522Z,76.00
2018-07-24T02:59:38.845Z,84.00
2018-07-24T03:00:38.779Z,92.00
2018-07-24T03:01:38.797Z,100.00
2018-07-24T03:02:39.520Z,116.00
2018-07-24T03:03:38.699Z,124.00
2018-07-24T03:04:39.523Z,140.00
2018-07-24T03:05:38.655Z,148.00
2018-07-24T03:06:38.674Z,164.00
2018-07-24T03:07:38.601Z,180.00
2018-07-24T03:08:38.586Z,196.00
2018-07-24T03:09:39.522Z,212.00
2018-07-24T03:10:38.520Z,232.00
2018-07-24T03:11:38.545Z,252.00
2018-07-24T03:12:38.469Z,272.00
2018-07-24T03:13:38.584Z,292.00
2018-07-24T03:14:38.420Z,316.00
2018-07-24T03:15:39.035Z,340.00
2018-07-24T03:16:38.371Z,364.00
2018-07-24T03:17:38.343Z,392.00
2018-07-24T03:18:38.365Z,420.00
2018-07-24T03:19:39.022Z,444.00
2018-07-24T03:20:38.266Z,476.00
2018-07-24T03:21:38.242Z,508.00
2018-07-24T03:22:38.577Z,540.00
2018-07-24T03:23:38.192Z,572.00
2018-07-24T03:24:38.172Z,604.00
2018-07-24T03:25:38.578Z,640.00
2018-07-24T03:26:38.114Z,676.00
2018-07-24T03:27:39.025Z,712.00
2018-07-24T03:28:38.067Z,748.00
2018-07-24T03:29:38.085Z,788.00
2018-07-24T03:30:38.080Z,828.00
2018-07-24T03:31:37.991Z,868.00
2018-07-24T03:32:37.968Z,908.00
2018-07-24T03:33:38.527Z,948.00
2018-07-24T03:34:37.951Z,992.00
2018-07-24T03:35:37.886Z,1036.00
2018-07-24T03:36:38.082Z,1080.00
2018-07-24T03:37:37.841Z,1124.00
2018-07-24T03:38:38.525Z,1164.00
2018-07-24T03:39:37.906Z,1212.00
2018-07-24T03:40:38.537Z,1252.00
2018-07-24T03:41:37.732Z,1296.00
2018-07-24T03:42:38.529Z,1340.00
2018-07-24T03:43:37.680Z,1384.00
2018-07-24T03:44:37.700Z,1432.00
2018-07-24T03:45:38.082Z,1472.00
2018-07-24T03:46:37.609Z,1520.00
2018-07-24T03:47:38.541Z,1564.00
2018-07-24T03:48:37.563Z,1612.00
2018-07-24T03:49:38.030Z,1660.00
2018-07-24T03:50:37.547Z,1700.00
2018-07-24T03:51:37.593Z,1748.00
2018-07-24T03:52:37.454Z,1788.00
2018-07-24T03:53:38.031Z,1836.00
2018-07-24T03:54:37.410Z,1872.00
2018-07-24T03:55:38.032Z,1916.00
2018-07-24T03:56:37.400Z,1956.00
2018-07-24T03:57:37.338Z,2000.00
2018-07-24T03:58:38.036Z,2040.00
2018-07-24T03:59:37.294Z,2084.00
2018-07-24T04:00:38.036Z,2120.00
2018-07-24T04:01:37.281Z,2184.00
2018-07-24T04:02:37.208Z,2264.00
2018-07-24T04:03:38.042Z,2344.00
2018-07-24T04:04:37.151Z,2404.00
2018-07-24T04:05:38.048Z,2360.00
2018-07-24T04:06:37.161Z,2360.00
2018-07-24T04:07:38.036Z,2412.00
2018-07-24T04:08:37.052Z,2456.00
2018-07-24T04:09:37.044Z,2488.00
2018-07-24T04:10:37.533Z,2504.00
2018-07-24T04:11:37.016Z,2532.00
2018-07-24T04:12:37.090Z,2572.00
2018-07-24T04:13:36.927Z,2612.00
2018-07-24T04:14:36.900Z,2648.00
2018-07-24T04:15:37.542Z,2684.00
2018-07-24T04:16:36.852Z,2732.00
2018-07-24T04:17:36.874Z,2776.00
2018-07-24T04:18:36.865Z,2800.00
2018-07-24T04:19:37.538Z,2848.00
2018-07-24T04:20:36.750Z,2924.00
2018-07-24T04:21:36.728Z,2960.00
2018-07-24T04:22:37.556Z,2972.00
2018-07-24T04:23:36.719Z,2992.00
2018-07-24T04:24:36.652Z,3184.00
2018-07-24T04:25:37.540Z,3296.00
2018-07-24T04:26:36.605Z,3148.00
2018-07-24T04:27:36.580Z,3160.00
2018-07-24T04:28:37.107Z,3232.00
2018-07-24T04:29:36.528Z,3292.00
2018-07-24T04:30:37.050Z,3516.00
2018-07-24T04:31:36.500Z,3892.00
2018-07-24T04:32:36.466Z,4312.00
2018-07-24T04:33:36.603Z,3888.00
2018-07-24T04:34:36.420Z,3396.00
2018-07-24T04:35:36.382Z,3536.00
2018-07-24T04:36:37.044Z,3560.00
2018-07-24T04:37:36.376Z,3508.00
2018-07-24T04:38:36.307Z,3612.00
2018-07-24T04:39:37.048Z,3692.00
2018-07-24T04:40:36.307Z,3744.00
2018-07-24T04:41:36.235Z,3560.00
2018-07-24T04:42:36.217Z,3460.00
2018-07-24T04:43:36.186Z,3484.00
2018-07-24T04:44:36.189Z,3504.00
2018-07-24T04:45:36.187Z,3528.00
2018-07-24T04:46:37.048Z,3552.00
2018-07-24T04:47:36.093Z,3572.00
2018-07-24T04:48:36.107Z,3596.00
2018-07-24T04:49:36.038Z,3612.00
2018-07-24T04:50:36.056Z,3636.00
2018-07-24T04:51:36.001Z,3660.00
2018-07-24T04:52:35.970Z,3688.00
2018-07-24T04:53:35.988Z,3732.00
2018-07-24T04:54:36.546Z,3752.00
2018-07-24T04:55:35.899Z,3748.00
2018-07-24T04:56:35.915Z,3840.00
2018-07-24T04:57:35.849Z,3876.00
2018-07-24T04:58:35.822Z,3860.00
2018-07-24T04:59:36.553Z,3932.00
2018-07-24T05:00:35.820Z,4208.00
2018-07-24T05:01:35.749Z,4884.00
2018-07-24T05:02:35.770Z,5384.00
2018-07-24T05:03:36.112Z,5144.00
2018-07-24T05:04:35.676Z,4796.00
2018-07-24T05:05:35.652Z,4340.00
2018-07-24T05:06:35.627Z,4040.00
2018-07-24T05:07:35.667Z,4036.00
2018-07-24T05:08:36.118Z,4012.00
2018-07-24T05:09:35.595Z,4032.00
2018-07-24T05:10:35.557Z,4184.00
2018-07-24T05:11:35.511Z,4196.00
2018-07-24T05:12:35.499Z,4524.00
2018-07-24T05:13:35.621Z,5228.00
2018-07-24T05:14:35.437Z,4796.00
2018-07-24T05:15:35.417Z,4684.00
2018-07-24T05:16:35.413Z,4788.00
2018-07-24T05:17:35.376Z,6232.00
2018-07-24T05:18:35.396Z,7608.00
2018-07-24T05:19:35.324Z,6564.00
2018-07-24T05:20:35.351Z,6156.00
2018-07-24T05:21:35.276Z,5816.00
2018-07-24T05:22:35.301Z,5648.00
2018-07-24T05:23:35.259Z,5832.00
2018-07-24T05:24:35.208Z,5280.00
2018-07-24T05:25:35.183Z,4948.00
2018-07-24T05:26:35.166Z,6204.00
2018-07-24T05:27:35.180Z,5908.00
2018-07-24T05:28:35.116Z,4820.00
2018-07-24T05:29:35.110Z,4832.00
2018-07-24T05:30:35.109Z,4692.00
2018-07-24T05:31:35.050Z,5436.00
2018-07-24T05:32:35.092Z,6656.00
2018-07-24T05:33:34.998Z,5164.00
2018-07-24T05:34:34.983Z,4500.00
2018-07-24T05:35:35.581Z,4612.00
2018-07-24T05:36:34.976Z,5084.00
2018-07-24T05:37:34.917Z,4872.00
2018-07-24T05:38:34.949Z,4436.00
2018-07-24T05:39:34.870Z,4364.00
2018-07-24T05:40:35.562Z,4408.00
2018-07-24T05:41:34.826Z,4436.00
2018-07-24T05:42:34.844Z,4396.00
2018-07-24T05:43:34.841Z,4396.00
2018-07-24T05:44:34.758Z,4384.00
2018-07-24T05:45:35.562Z,4388.00
2018-07-24T05:46:34.708Z,4400.00
2018-07-24T05:47:34.686Z,4400.00
2018-07-24T05:48:34.723Z,4404.00
2018-07-24T05:49:34.644Z,4404.00
2018-07-24T05:50:34.623Z,4412.00
2018-07-24T05:51:34.601Z,4408.00
2018-07-24T05:52:34.575Z,4412.00
2018-07-24T05:53:34.594Z,4420.00
2018-07-24T05:54:34.586Z,4424.00
2018-07-24T05:55:34.510Z,4436.00
2018-07-24T05:56:34.489Z,4444.00
2018-07-24T05:57:34.464Z,4452.00
2018-07-24T05:58:34.485Z,4456.00
2018-07-24T05:59:34.425Z,4468.00
2018-07-24T06:00:34.399Z,4476.00
2018-07-24T06:01:34.379Z,4480.00
2018-07-24T06:02:34.382Z,4492.00
2018-07-24T06:03:34.335Z,4504.00
2018-07-24T06:04:34.315Z,4512.00
2018-07-24T06:05:34.337Z,4524.00
2018-07-24T06:06:34.275Z,4528.00
2018-07-24T06:07:34.291Z,4536.00
2018-07-24T06:08:34.232Z,4540.00
2018-07-24T06:09:34.202Z,4544.00
2018-07-24T06:10:34.226Z,4548.00
2018-07-24T06:11:34.168Z,4544.00
2018-07-24T06:12:34.141Z,4544.00
2018-07-24T06:13:34.165Z,4548.00
2018-07-24T06:14:34.093Z,4552.00
2018-07-24T06:15:34.080Z,4560.00
2018-07-24T06:16:34.058Z,4568.00
2018-07-24T06:17:34.034Z,4576.00
2018-07-24T06:18:34.050Z,4588.00
2018-07-24T06:19:33.985Z,4592.00
2018-07-24T06:20:33.961Z,4600.00
2018-07-24T06:21:33.941Z,4604.00
2018-07-24T06:22:33.918Z,4608.00
2018-07-24T06:23:33.987Z,4616.00
2018-07-24T06:24:33.885Z,4616.00
2018-07-24T06:25:33.855Z,4616.00
2018-07-24T06:26:33.831Z,4616.00
2018-07-24T06:27:33.817Z,4616.00
2018-07-24T06:28:33.835Z,4612.00
2018-07-24T06:29:33.767Z,4608.00
2018-07-24T06:30:33.793Z,4604.00
2018-07-24T06:31:33.725Z,4600.00
2018-07-24T06:32:33.763Z,4596.00
2018-07-24T06:33:33.680Z,4596.00
2018-07-24T06:34:33.671Z,4588.00
2018-07-24T06:35:33.643Z,4592.00
2018-07-24T06:36:33.682Z,4588.00
2018-07-24T06:37:33.598Z,4592.00
2018-07-24T06:38:33.576Z,4592.00
2018-07-24T06:39:33.612Z,4596.00
2018-07-24T06:40:33.584Z,4596.00
2018-07-24T06:41:33.515Z,4600.00
2018-07-24T06:42:33.491Z,4600.00
2018-07-24T06:43:33.481Z,4596.00
2018-07-24T06:44:34.097Z,4600.00
2018-07-24T06:45:33.482Z,4592.00
2018-07-24T06:46:33.435Z,4584.00
2018-07-24T06:47:33.386Z,4576.00
2018-07-24T06:48:33.369Z,4568.00
2018-07-24T06:49:33.399Z,4560.00
2018-07-24T06:50:33.326Z,4552.00
2018-07-24T06:51:33.356Z,4548.00
2018-07-24T06:52:33.283Z,4540.00
2018-07-24T06:53:33.266Z,4540.00
2018-07-24T06:54:33.286Z,4544.00
2018-07-24T06:55:33.231Z,4544.00
2018-07-24T06:56:33.668Z,4544.00
2018-07-24T06:57:33.180Z,4544.00
2018-07-24T06:58:33.157Z,4544.00
2018-07-24T06:59:33.140Z,4540.00
2018-07-24T07:00:33.113Z,4540.00
2018-07-24T07:01:33.636Z,4536.00
2018-07-24T07:02:33.074Z,4536.00
2018-07-24T07:03:33.052Z,4532.00
2018-07-24T07:04:33.078Z,4524.00
2018-07-24T07:05:33.010Z,4516.00
2018-07-24T07:06:33.149Z,4512.00
2018-07-24T07:07:32.984Z,4512.00
2018-07-24T07:08:32.957Z,4512.00
2018-07-24T07:09:32.973Z,4528.00
2018-07-24T07:10:32.909Z,4528.00
2018-07-24T07:11:32.929Z,4508.00
2018-07-24T07:12:32.864Z,4500.00
2018-07-24T07:13:32.896Z,4496.00
2018-07-24T07:14:32.821Z,4496.00
2018-07-24T07:15:32.808Z,4488.00
2018-07-24T07:16:32.848Z,4484.00
2018-07-24T07:17:32.764Z,4480.00
2018-07-24T07:18:32.744Z,4480.00
2018-07-24T07:19:32.731Z,4480.00
2018-07-24T07:20:32.720Z,4472.00
2018-07-24T07:21:32.702Z,4464.00
2018-07-24T07:22:32.661Z,4472.00
2018-07-24T07:23:32.752Z,4468.00
2018-07-24T07:24:32.623Z,4476.00
2018-07-24T07:25:32.617Z,4480.00
2018-07-24T07:26:32.652Z,4480.00
2018-07-24T07:27:32.625Z,4484.00
2018-07-24T07:28:32.591Z,4496.00
2018-07-24T07:29:32.534Z,4508.00
2018-07-24T07:30:32.507Z,4512.00
2018-07-24T07:31:32.476Z,4516.00
2018-07-24T07:32:32.533Z,4520.00
2018-07-24T07:33:32.436Z,4524.00
2018-07-24T07:34:32.417Z,4528.00
2018-07-24T07:35:32.417Z,4532.00
2018-07-24T07:36:32.383Z,4536.00
2018-07-24T07:37:32.502Z,4536.00
2018-07-24T07:38:32.416Z,4540.00
2018-07-24T07:39:32.323Z,4540.00
2018-07-24T07:40:32.296Z,4532.00
2018-07-24T07:41:32.278Z,4532.00
2018-07-24T07:42:32.287Z,4540.00
2018-07-24T07:43:32.240Z,4544.00
2018-07-24T07:44:32.225Z,4552.00
2018-07-24T07:45:32.209Z,4548.00
2018-07-24T07:46:32.243Z,4548.00
2018-07-24T07:47:32.158Z,4544.00
2018-07-24T07:48:32.188Z,4616.00
2018-07-24T07:49:32.158Z,4620.00
2018-07-24T07:50:32.097Z,4620.00
2018-07-24T07:51:32.106Z,4624.00
2018-07-24T07:52:32.111Z,4624.00
2018-07-24T07:53:32.042Z,4640.00
2018-07-24T07:54:32.066Z,4656.00
2018-07-24T07:55:32.006Z,4668.00
2018-07-24T07:56:31.984Z,4684.00
2018-07-24T07:57:31.961Z,4704.00
2018-07-24T07:58:31.940Z,4728.00
2018-07-24T07:59:31.980Z,4748.00
2018-07-24T08:00:31.900Z,4736.00
2018-07-24T08:01:31.880Z,4732.00
2018-07-24T08:02:31.883Z,4744.00
2018-07-24T08:03:31.839Z,4772.00
2018-07-24T08:04:31.871Z,4788.00
2018-07-24T08:05:31.847Z,4800.00
2018-07-24T08:06:31.791Z,4816.00
2018-07-24T08:07:31.769Z,4828.00
2018-07-24T08:08:31.745Z,4836.00
2018-07-24T08:09:31.769Z,4832.00
2018-07-24T08:10:31.705Z,4824.00
2018-07-24T08:11:31.684Z,4824.00
2018-07-24T08:12:32.602Z,4816.00
2018-07-24T08:13:31.696Z,4832.00
2018-07-24T08:14:31.627Z,4836.00
2018-07-24T08:15:31.646Z,4832.00
2018-07-24T08:16:31.594Z,4832.00
2018-07-24T08:17:32.095Z,4848.00
2018-07-24T08:18:31.551Z,4848.00
2018-07-24T08:19:31.583Z,4836.00
2018-07-24T08:20:31.513Z,4824.00
2018-07-24T08:21:31.531Z,4820.00
2018-07-24T08:22:32.103Z,4816.00
2018-07-24T08:23:31.452Z,4820.00
2018-07-24T08:24:31.450Z,4820.00
2018-07-24T08:25:31.464Z,4824.00
2018-07-24T08:26:31.467Z,4828.00
2018-07-24T08:27:31.375Z,4812.00
2018-07-24T08:28:31.354Z,4800.00
2018-07-24T08:29:31.376Z,4776.00
2018-07-24T08:30:31.323Z,4800.00
2018-07-24T08:31:31.341Z,4832.00
2018-07-24T08:32:31.279Z,4840.00
2018-07-24T08:33:31.321Z,4848.00
2018-07-24T08:34:31.240Z,4848.00
2018-07-24T08:35:31.224Z,4852.00
2018-07-24T08:36:31.248Z,4828.00
2018-07-24T08:37:31.190Z,4700.00
2018-07-24T08:38:31.169Z,4596.00
2018-07-24T08:39:31.147Z,4336.00
2018-07-24T08:40:31.122Z,4560.00
2018-07-24T08:41:31.149Z,4868.00
2018-07-24T08:42:31.088Z,4952.00
2018-07-24T08:43:31.067Z,4784.00
2018-07-24T08:44:31.054Z,4524.00
2018-07-24T08:45:31.053Z,4640.00
2018-07-24T08:46:31.005Z,4920.00
2018-07-24T08:47:31.031Z,4944.00
2018-07-24T08:48:30.985Z,4764.00
2018-07-24T08:49:30.950Z,4780.00
2018-07-24T08:50:30.941Z,4748.00
2018-07-24T08:51:30.960Z,4712.00
2018-07-24T08:52:30.988Z,4800.00
2018-07-24T08:53:31.184Z,4844.00
2018-07-24T08:54:30.999Z,4792.00
2018-07-24T08:55:31.273Z,4816.00
2018-07-24T08:56:30.820Z,4840.00
2018-07-24T08:57:30.799Z,4844.00
2018-07-24T08:58:30.842Z,4844.00
2018-07-24T08:59:30.764Z,4856.00
2018-07-24T09:00:30.768Z,4780.00
2018-07-24T09:01:30.722Z,4732.00
2018-07-24T09:02:30.700Z,4736.00
2018-07-24T09:03:30.755Z,4720.00
2018-07-24T09:04:30.667Z,4660.00
2018-07-24T09:05:30.648Z,4652.00
2018-07-24T09:06:30.626Z,4684.00
2018-07-24T09:07:30.668Z,4656.00
2018-07-24T09:08:30.595Z,4608.00
2018-07-24T09:09:30.621Z,4600.00
2018-07-24T09:10:30.594Z,4572.00
2018-07-24T09:11:30.543Z,4548.00
2018-07-24T09:12:30.568Z,4536.00
2018-07-24T09:13:30.505Z,4528.00
2018-07-24T09:14:30.487Z,4508.00
2018-07-24T09:15:30.461Z,4508.00
2018-07-24T09:16:30.438Z,4504.00
2018-07-24T09:17:30.462Z,4500.00
2018-07-24T09:18:30.406Z,4492.00
2018-07-24T09:19:30.381Z,4496.00
2018-07-24T09:20:30.365Z,4496.00
2018-07-24T09:21:30.346Z,4500.00
2018-07-24T09:22:30.374Z,4524.00
2018-07-24T09:23:30.308Z,4564.00
2018-07-24T09:24:30.294Z,4552.00
2018-07-24T09:25:30.280Z,4568.00
2018-07-24T09:26:30.263Z,4572.00
2018-07-24T09:27:30.279Z,4628.00
2018-07-24T09:28:30.229Z,4700.00
2018-07-24T09:29:30.209Z,4772.00
2018-07-24T09:30:30.223Z,4724.00
2018-07-24T09:31:30.163Z,4756.00
2018-07-24T09:32:30.140Z,4728.00
2018-07-24T09:33:30.197Z,4672.00
2018-07-24T09:34:30.158Z,4652.00
2018-07-24T09:35:30.087Z,4668.00
2018-07-24T09:36:30.066Z,4676.00
2018-07-24T09:37:30.047Z,4672.00
2018-07-24T09:38:30.621Z,4688.00
2018-07-24T09:39:30.053Z,4692.00
2018-07-24T09:40:30.100Z,4708.00
2018-07-24T09:41:29.976Z,4756.00
2018-07-24T09:42:29.957Z,4740.00
2018-07-24T09:43:30.624Z,4756.00
2018-07-24T09:44:29.922Z,4904.00
2018-07-24T09:45:29.944Z,5088.00
2018-07-24T09:46:29.882Z,5036.00
2018-07-24T09:47:29.865Z,5116.00
2018-07-24T09:48:30.188Z,5120.00
2018-07-24T09:49:29.836Z,4960.00
2018-07-24T09:50:29.879Z,4892.00
2018-07-24T09:51:29.790Z,4876.00
2018-07-24T09:52:29.780Z,4840.00
2018-07-24T09:53:30.182Z,4816.00
2018-07-24T09:54:29.788Z,4808.00
2018-07-24T09:55:29.717Z,4832.00
2018-07-24T09:56:29.772Z,4796.00
2018-07-24T09:57:29.702Z,4764.00
2018-07-24T09:58:29.665Z,4800.00
2018-07-24T09:59:29.702Z,4880.00
2018-07-24T10:00:29.631Z,4876.00
2018-07-24T10:01:29.625Z,4788.00
2018-07-24T10:02:29.593Z,4728.00
2018-07-24T10:03:29.576Z,4776.00
2018-07-24T10:04:29.632Z,4980.00
2018-07-24T10:05:29.563Z,5172.00
2018-07-24T10:06:29.521Z,4832.00
2018-07-24T10:07:29.501Z,4820.00
2018-07-24T10:08:29.483Z,5052.00
2018-07-24T10:09:29.522Z,4984.00
2018-07-24T10:10:29.460Z,5004.00
2018-07-24T10:11:29.429Z,5028.00
2018-07-24T10:12:29.411Z,5056.00
2018-07-24T10:13:29.451Z,5052.00
2018-07-24T10:14:29.419Z,5036.00
2018-07-24T10:15:29.359Z,5036.00
2018-07-24T10:16:29.415Z,5040.00
2018-07-24T10:17:29.363Z,5052.00
2018-07-24T10:18:29.299Z,5156.00
2018-07-24T10:19:29.282Z,5388.00
2018-07-24T10:20:29.334Z,5368.00
2018-07-24T10:21:29.249Z,5228.00
2018-07-24T10:22:29.234Z,5256.00
2018-07-24T10:23:29.262Z,5364.00
2018-07-24T10:24:29.226Z,5508.00
2018-07-24T10:25:29.196Z,5516.00
2018-07-24T10:26:29.157Z,5476.00
2018-07-24T10:27:29.185Z,5344.00
2018-07-24T10:28:29.131Z,5216.00
2018-07-24T10:29:29.155Z,5152.00
2018-07-24T10:30:29.145Z,5128.00
2018-07-24T10:31:29.066Z,5160.00
2018-07-24T10:32:29.101Z,5160.00
2018-07-24T10:33:29.030Z,5152.00
2018-07-24T10:34:29.064Z,5128.00
2018-07-24T10:35:28.992Z,5128.00
2018-07-24T10:36:29.025Z,5108.00
2018-07-24T10:37:28.957Z,5100.00
2018-07-24T10:38:28.938Z,5164.00
2018-07-24T10:39:28.964Z,5256.00
2018-07-24T10:40:28.906Z,5340.00
2018-07-24T10:41:28.884Z,5372.00
2018-07-24T10:42:28.925Z,5420.00
2018-07-24T10:43:28.856Z,5424.00
2018-07-24T10:44:28.837Z,5408.00
2018-07-24T10:45:28.817Z,5412.00
2018-07-24T10:46:28.793Z,5504.00
2018-07-24T10:47:28.836Z,5512.00
2018-07-24T10:48:28.763Z,5500.00
2018-07-24T10:49:28.748Z,5476.00
2018-07-24T10:50:28.726Z,5456.00
2018-07-24T10:51:28.708Z,5480.00
2018-07-24T10:52:28.736Z,5552.00
2018-07-24T10:53:28.686Z,5544.00
2018-07-24T10:54:28.654Z,5500.00
2018-07-24T10:55:29.144Z,5516.00
2018-07-24T10:56:28.620Z,5532.00
2018-07-24T10:57:28.661Z,5552.00
2018-07-24T10:58:28.582Z,5524.00
2018-07-24T10:59:28.575Z,5540.00
2018-07-24T11:00:28.702Z,5560.00
2018-07-24T11:01:28.536Z,5612.00
2018-07-24T11:02:28.581Z,5628.00
2018-07-24T11:03:28.496Z,5616.00
2018-07-24T11:04:28.492Z,5740.00
2018-07-24T11:05:28.710Z,6024.00
2018-07-24T11:06:28.447Z,6304.00
2018-07-24T11:07:28.427Z,6376.00
2018-07-24T11:08:28.416Z,6508.00
2018-07-24T11:09:28.399Z,6500.00
2018-07-24T11:10:28.704Z,6408.00
2018-07-24T11:11:28.367Z,6196.00
2018-07-24T11:12:28.349Z,5952.00
2018-07-24T11:13:28.326Z,5888.00
2018-07-24T11:14:28.318Z,5808.00
2018-07-24T11:15:28.717Z,5808.00
2018-07-24T11:16:28.333Z,5684.00
2018-07-24T11:17:28.257Z,5812.00
2018-07-24T11:18:28.238Z,6388.00
2018-07-24T11:19:28.223Z,7048.00
2018-07-24T11:20:28.713Z,7608.00
2018-07-24T11:21:28.184Z,7880.00
2018-07-24T11:22:28.279Z,7816.00
2018-07-24T11:23:28.160Z,7512.00
2018-07-24T11:24:28.139Z,7448.00
2018-07-24T11:25:28.166Z,7480.00
2018-07-24T11:26:28.097Z,7384.00
2018-07-24T11:27:28.137Z,7424.00
2018-07-24T11:28:28.165Z,7024.00
2018-07-24T11:29:28.089Z,6588.00
2018-07-24T11:30:28.027Z,6272.00
2018-07-24T11:31:28.009Z,6272.00
2018-07-24T11:32:28.041Z,6180.00
2018-07-24T11:33:28.039Z,6064.00
2018-07-24T11:34:27.976Z,5780.00
2018-07-24T11:35:27.963Z,5672.00
2018-07-24T11:36:27.924Z,5804.00
2018-07-24T11:37:27.964Z,5892.00
2018-07-24T11:38:27.897Z,5844.00
2018-07-24T11:39:27.875Z,5744.00
2018-07-24T11:40:27.856Z,5852.00
2018-07-24T11:41:27.836Z,6176.00
2018-07-24T11:42:27.874Z,6632.00
2018-07-24T11:43:27.805Z,6948.00
2018-07-24T11:44:27.828Z,7172.00
2018-07-24T11:45:27.816Z,7324.00
2018-07-24T11:46:27.765Z,7408.00
2018-07-24T11:47:27.744Z,7288.00
2018-07-24T11:48:27.726Z,7072.00
2018-07-24T11:49:27.704Z,7052.00
2018-07-24T11:50:27.728Z,7372.00
2018-07-24T11:51:27.718Z,8016.00
2018-07-24T11:52:27.654Z,8864.00
2018-07-24T11:53:27.640Z,9736.00
2018-07-24T11:54:27.615Z,10160.00
2018-07-24T11:55:27.657Z,10044.00
2018-07-24T11:56:27.583Z,9588.00
2018-07-24T11:57:27.572Z,9272.00
2018-07-24T11:58:27.551Z,8672.00
2018-07-24T11:59:27.591Z,8572.00
2018-07-24T12:00:27.519Z,8324.00
2018-07-24T12:01:27.548Z,7808.00
2018-07-24T12:02:27.481Z,7912.00
2018-07-24T12:03:27.554Z,8488.00
2018-07-24T12:04:27.455Z,8536.00
2018-07-24T12:05:27.446Z,8860.00
2018-07-24T12:06:27.424Z,8612.00
2018-07-24T12:07:27.449Z,8536.00
2018-07-24T12:08:27.410Z,8496.00
2018-07-24T12:09:27.417Z,8628.00
2018-07-24T12:10:27.404Z,8420.00
2018-07-24T12:11:27.336Z,7908.00
2018-07-24T12:12:27.372Z,7772.00
2018-07-24T12:13:27.373Z,7652.00
2018-07-24T12:14:27.338Z,7356.00
2018-07-24T12:15:27.322Z,7532.00
2018-07-24T12:16:27.262Z,7804.00
2018-07-24T12:17:27.239Z,7436.00
2018-07-24T12:18:27.224Z,7080.00
2018-07-24T12:19:27.267Z,6464.00
2018-07-24T12:20:27.192Z,6304.00
2018-07-24T12:21:27.188Z,6360.00
2018-07-24T12:22:27.160Z,6144.00